createdAt,value
2023-03-17T00:01:15.938Z,99310.72
2023-03-17T00:03:44.639Z,99301.31
2023-03-17T00:06:17.702Z,99303.84
2023-03-17T00:08:44.797Z,99318.13
2023-03-17T00:11:13.244Z,99307.44
2023-03-17T00:13:39.772Z,99311.34
2023-03-17T00:16:12.965Z,99311.81
2023-03-17T00:18:39.566Z,99308.75
2023-03-17T00:21:06.140Z,99310.38
2023-03-17T00:23:32.614Z,99308.34
2023-03-17T00:25:59.129Z,99309.09
2023-03-17T00:28:27.896Z,99307.75
2023-03-17T00:30:58.105Z,99312.13
2023-03-17T00:33:27.445Z,99316.66
2023-03-17T00:35:56.134Z,99324.94
2023-03-17T00:38:23.312Z,99324.88
2023-03-17T00:40:50.883Z,99329.81
2023-03-17T00:43:18.175Z,99330.81
2023-03-17T00:45:44.622Z,99327.25
2023-03-17T00:48:19.721Z,99330.00
2023-03-17T00:50:47.600Z,99332.97
2023-03-17T00:53:16.551Z,99346.88
2023-03-17T00:55:45.066Z,99339.41
2023-03-17T00:58:25.539Z,99337.63
2023-03-17T01:00:52.079Z,99343.34
2023-03-17T01:03:18.645Z,99349.53
2023-03-17T01:05:45.782Z,99353.41
2023-03-17T01:08:12.635Z,99344.97
2023-03-17T01:10:39.237Z,99354.22
2023-03-17T01:13:06.918Z,99349.94
2023-03-17T01:15:34.016Z,99359.19
2023-03-17T01:18:02.101Z,99361.69
2023-03-17T01:20:32.140Z,99360.00
2023-03-17T01:22:59.520Z,99367.13
2023-03-17T01:25:26.265Z,99358.38
2023-03-17T01:27:54.264Z,99364.22
2023-03-17T01:30:20.751Z,99376.22
2023-03-17T01:32:47.321Z,99389.50
2023-03-17T01:35:14.220Z,99394.63
2023-03-17T01:37:40.758Z,99395.13
2023-03-17T01:40:09.181Z,99404.38
2023-03-17T01:42:36.286Z,99398.53
2023-03-17T01:45:06.733Z,99401.34
2023-03-17T01:47:33.874Z,99407.59
2023-03-17T01:50:06.784Z,99412.41
2023-03-17T01:52:38.377Z,99413.41
2023-03-17T01:55:12.007Z,99426.38
2023-03-17T01:57:47.695Z,99417.97
2023-03-17T02:00:18.048Z,99443.56
2023-03-17T02:02:47.059Z,99445.53
2023-03-17T02:05:17.309Z,99452.69
2023-03-17T02:07:44.413Z,99455.34
2023-03-17T02:10:12.847Z,99456.31
2023-03-17T02:12:43.723Z,99458.53
2023-03-17T02:15:11.697Z,99463.28
2023-03-17T02:17:38.931Z,99462.84
2023-03-17T02:20:17.333Z,99466.16
2023-03-17T02:22:45.363Z,99465.56
2023-03-17T02:25:11.958Z,99466.09
2023-03-17T02:27:42.467Z,99467.00
2023-03-17T02:30:10.974Z,99463.06
2023-03-17T02:32:38.076Z,99466.47
2023-03-17T02:35:06.602Z,99471.34
2023-03-17T02:37:33.340Z,99461.81
2023-03-17T02:40:00.273Z,99453.94
2023-03-17T02:42:27.280Z,99441.06
2023-03-17T02:44:53.918Z,99442.19
2023-03-17T02:47:20.902Z,99455.81
2023-03-17T02:49:47.736Z,99440.03
2023-03-17T02:52:14.258Z,99453.91
2023-03-17T02:54:40.956Z,99465.81
2023-03-17T02:57:07.474Z,99463.13
2023-03-17T02:59:34.582Z,99459.88
2023-03-17T03:02:01.102Z,99469.38
2023-03-17T03:04:27.809Z,99466.78
2023-03-17T03:06:54.364Z,99475.38
2023-03-17T03:09:21.037Z,99490.97
2023-03-17T03:11:47.883Z,99503.78
2023-03-17T03:14:14.928Z,99499.09
2023-03-17T03:16:41.430Z,99494.25
2023-03-17T03:19:08.053Z,99500.47
2023-03-17T03:21:35.161Z,99501.25
2023-03-17T03:24:01.633Z,99506.25
2023-03-17T03:26:28.238Z,99506.53
2023-03-17T03:28:54.756Z,99501.69
2023-03-17T03:31:21.305Z,99501.63
2023-03-17T03:33:47.989Z,99514.75
2023-03-17T03:36:14.478Z,99501.69
2023-03-17T03:38:41.038Z,99506.25
2023-03-17T03:41:08.309Z,99516.03
2023-03-17T03:43:35.222Z,99521.41
2023-03-17T03:46:02.236Z,99549.91
2023-03-17T03:48:28.831Z,99524.91
2023-03-17T03:50:59.660Z,99529.28
2023-03-17T03:53:27.312Z,99533.78
2023-03-17T03:58:21.370Z,99539.22
2023-03-17T04:00:47.991Z,99533.50
2023-03-17T04:03:15.364Z,99536.09
2023-03-17T04:05:41.942Z,99535.41
2023-03-17T04:08:08.596Z,99535.63
2023-03-17T04:10:35.299Z,99533.88
2023-03-17T04:13:02.154Z,99555.97
2023-03-17T04:15:29.074Z,99574.78
2023-03-17T04:17:55.705Z,99566.22
2023-03-17T04:20:22.305Z,99574.66
2023-03-17T04:22:48.835Z,99582.44
2023-03-17T04:25:15.814Z,99591.44
2023-03-17T04:27:42.802Z,99599.44
2023-03-17T04:30:11.851Z,99601.38
2023-03-17T04:32:38.396Z,99602.59
2023-03-17T04:35:05.886Z,99610.63
2023-03-17T04:37:34.597Z,99626.03
2023-03-17T04:40:01.404Z,99624.84
2023-03-17T04:42:27.879Z,99616.25
2023-03-17T04:44:54.379Z,99633.28
2023-03-17T04:47:20.970Z,99641.59
2023-03-17T04:49:47.426Z,99657.13
2023-03-17T04:52:13.926Z,99643.22
2023-03-17T04:54:40.456Z,99655.50
2023-03-17T04:57:06.932Z,99658.22
2023-03-17T04:59:33.401Z,99665.72
2023-03-17T05:01:59.966Z,99657.13
2023-03-17T05:04:31.538Z,99657.81
2023-03-17T05:06:58.800Z,99678.44
2023-03-17T05:09:26.099Z,99671.91
2023-03-17T05:11:52.611Z,99668.34
2023-03-17T05:14:19.376Z,99680.34
2023-03-17T05:16:49.838Z,99683.91
2023-03-17T05:19:17.566Z,99695.06
2023-03-17T05:21:44.160Z,99702.28
2023-03-17T05:24:10.843Z,99688.25
2023-03-17T05:26:38.179Z,99690.16
2023-03-17T05:29:04.746Z,99678.97
2023-03-17T05:31:31.780Z,99693.44
2023-03-17T05:33:58.633Z,99698.50
2023-03-17T05:36:25.134Z,99688.25
2023-03-17T05:38:51.730Z,99694.00
2023-03-17T05:41:18.200Z,99666.72
2023-03-17T05:43:44.670Z,99689.91
2023-03-17T05:46:11.297Z,99701.09
2023-03-17T05:48:37.799Z,99692.09
2023-03-17T05:51:04.518Z,99696.47
2023-03-17T05:53:31.019Z,99719.34
2023-03-17T05:55:57.478Z,99730.53
2023-03-17T05:58:23.996Z,99723.97
2023-03-17T06:00:50.558Z,99736.38
2023-03-17T06:03:17.135Z,99741.16
2023-03-17T06:05:43.649Z,99742.00
2023-03-17T06:08:10.411Z,99725.63
2023-03-17T06:10:36.920Z,99736.13
2023-03-17T06:13:04.189Z,99743.88
2023-03-17T06:15:32.523Z,99732.19
2023-03-17T06:17:59.306Z,99700.94
2023-03-17T06:20:25.833Z,99714.47
2023-03-17T06:23:03.946Z,99737.88
2023-03-17T06:25:31.404Z,99731.09
2023-03-17T06:27:58.076Z,99749.91
2023-03-17T06:30:24.598Z,99745.78
2023-03-17T06:32:51.097Z,99764.75
2023-03-17T06:35:17.660Z,99747.16
2023-03-17T06:37:44.109Z,99744.44
2023-03-17T06:40:11.221Z,99754.38
2023-03-17T06:42:37.803Z,99771.38
2023-03-17T06:45:04.571Z,99775.19
2023-03-17T06:47:31.131Z,99765.09
2023-03-17T06:49:57.713Z,99763.47
2023-03-17T06:52:24.183Z,99776.81
2023-03-17T06:54:50.642Z,99781.72
2023-03-17T06:57:17.195Z,99775.28
2023-03-17T06:59:43.646Z,99773.66
2023-03-17T07:02:11.117Z,99776.09
2023-03-17T07:04:38.058Z,99772.94
2023-03-17T07:07:05.446Z,99771.84
2023-03-17T07:09:33.458Z,99793.75
2023-03-17T07:12:01.940Z,99797.72
2023-03-17T07:14:28.745Z,99807.06
2023-03-17T07:16:55.214Z,99792.09
2023-03-17T07:19:21.736Z,99813.91
2023-03-17T07:21:48.210Z,99801.88
2023-03-17T07:24:14.715Z,99807.28
2023-03-17T07:26:41.212Z,99817.84
2023-03-17T07:29:07.729Z,99801.41
2023-03-17T07:31:34.243Z,99799.50
2023-03-17T07:34:00.792Z,99818.81
2023-03-17T07:36:27.299Z,99812.84
2023-03-17T07:38:53.775Z,99812.72
2023-03-17T07:41:21.047Z,99826.31
2023-03-17T07:43:47.850Z,99820.19
2023-03-17T07:46:14.443Z,99816.56
2023-03-17T07:48:41.382Z,99827.19
2023-03-17T07:51:17.302Z,99821.22
2023-03-17T07:53:43.963Z,99813.34
2023-03-17T07:56:10.639Z,99807.63
2023-03-17T07:58:37.198Z,99817.75
2023-03-17T08:01:04.500Z,99828.13
2023-03-17T08:03:31.314Z,99809.63
2023-03-17T08:05:58.481Z,99831.63
2023-03-17T08:08:25.666Z,99838.63
2023-03-17T08:10:52.216Z,99836.94
2023-03-17T08:13:19.025Z,99821.41
2023-03-17T08:15:46.023Z,99852.44
2023-03-17T08:18:12.518Z,99848.25
2023-03-17T08:20:38.994Z,99853.47
2023-03-17T08:23:05.618Z,99852.88
2023-03-17T08:25:32.138Z,99868.84
2023-03-17T08:27:58.608Z,99887.09
2023-03-17T08:30:25.107Z,99875.69
2023-03-17T08:32:51.694Z,99876.78
2023-03-17T08:35:18.427Z,99883.34
2023-03-17T08:37:45.908Z,99876.50
2023-03-17T08:40:14.345Z,99906.66
2023-03-17T08:42:40.795Z,99900.66
2023-03-17T08:45:07.667Z,99886.06
2023-03-17T08:47:34.134Z,99898.94
2023-03-17T08:50:00.879Z,99910.78
2023-03-17T08:52:28.428Z,99890.88
2023-03-17T08:54:55.077Z,99861.53
2023-03-17T08:57:21.586Z,99893.94
2023-03-17T08:59:49.215Z,99897.50
2023-03-17T09:02:15.735Z,99894.16
2023-03-17T09:04:42.772Z,99903.63
2023-03-17T09:07:10.135Z,99912.00
2023-03-17T09:09:36.915Z,99896.28
2023-03-17T09:12:06.807Z,99897.47
2023-03-17T09:14:42.767Z,99916.44
2023-03-17T09:17:09.973Z,99891.59
2023-03-17T09:19:37.205Z,99923.25
2023-03-17T09:22:03.684Z,99914.78
2023-03-17T09:24:30.158Z,99918.53
2023-03-17T09:26:56.922Z,99906.88
2023-03-17T09:29:23.401Z,99925.66
2023-03-17T09:31:49.862Z,99951.63
2023-03-17T09:34:16.361Z,99952.16
2023-03-17T09:36:42.852Z,99933.59
2023-03-17T09:39:09.356Z,99926.75
2023-03-17T09:41:49.353Z,99935.56
2023-03-17T09:44:28.589Z,99940.81
2023-03-17T09:47:04.772Z,99937.59
2023-03-17T09:49:47.852Z,99946.53
2023-03-17T09:52:17.610Z,99956.47
2023-03-17T09:54:46.245Z,99925.81
2023-03-17T09:57:22.012Z,99950.44
2023-03-17T09:59:54.066Z,99956.66
2023-03-17T10:02:35.805Z,99938.78
2023-03-17T10:05:28.858Z,99958.94
2023-03-17T10:08:29.391Z,99955.31
2023-03-17T10:11:32.445Z,99952.34
2023-03-17T10:14:14.106Z,99957.69
2023-03-17T10:17:02.515Z,99963.72
2023-03-17T10:19:44.174Z,99939.53
2023-03-17T10:22:30.547Z,99958.56
2023-03-17T10:25:05.555Z,99952.38
2023-03-17T10:27:36.593Z,99956.19
2023-03-17T10:30:03.882Z,99971.91
2023-03-17T10:32:31.325Z,99952.56
2023-03-17T10:34:57.837Z,99957.75
2023-03-17T10:37:24.344Z,99974.28
2023-03-17T10:39:53.419Z,99955.22
2023-03-17T10:42:27.376Z,99968.28
2023-03-17T10:45:07.077Z,99954.41
2023-03-17T10:47:43.522Z,100006.59
2023-03-17T10:50:24.152Z,99974.66
2023-03-17T10:53:09.933Z,99966.84
2023-03-17T10:55:42.916Z,99944.31
2023-03-17T10:58:26.768Z,99977.91
2023-03-17T11:01:02.287Z,99954.38
2023-03-17T11:03:31.403Z,99970.31
2023-03-17T11:06:06.502Z,99982.88
2023-03-17T11:08:50.429Z,99975.94
2023-03-17T11:11:31.506Z,99983.91
2023-03-17T11:14:25.682Z,99992.50
2023-03-17T11:16:59.102Z,99983.09
2023-03-17T11:20:06.520Z,99978.59
2023-03-17T11:22:42.002Z,100000.81
2023-03-17T11:25:14.299Z,99989.19
2023-03-17T11:27:48.390Z,99984.03
2023-03-17T11:31:10.338Z,99996.75
2023-03-17T11:33:49.053Z,99976.13
2023-03-17T11:36:46.191Z,100007.00
2023-03-17T11:39:48.459Z,100025.75
2023-03-17T11:42:26.729Z,100032.09
2023-03-17T11:45:23.476Z,100019.63
2023-03-17T11:48:06.338Z,100019.47
2023-03-17T11:50:47.808Z,100034.09
2023-03-17T11:53:18.974Z,100024.59
2023-03-17T11:55:51.337Z,100027.13
2023-03-17T11:58:49.292Z,100014.66
2023-03-17T12:01:23.753Z,100040.00
2023-03-17T12:03:59.043Z,100030.16
2023-03-17T12:06:33.681Z,100044.31
2023-03-17T12:09:09.779Z,100049.13
2023-03-17T12:11:42.232Z,100041.44
2023-03-17T12:14:47.124Z,100027.19
2023-03-17T12:17:39.240Z,100063.47
2023-03-17T12:20:41.048Z,100041.53
2023-03-17T12:23:24.408Z,100054.63
2023-03-17T12:28:34.266Z,100077.94
2023-03-17T12:31:07.537Z,100063.00
2023-03-17T12:33:58.044Z,100064.69
2023-03-17T12:36:25.292Z,100066.22
2023-03-17T12:39:15.570Z,100061.25
2023-03-17T12:42:02.708Z,100076.19
2023-03-17T12:44:40.598Z,100091.28
2023-03-17T12:47:07.013Z,100087.13
2023-03-17T12:50:04.619Z,100082.28
2023-03-17T12:52:49.544Z,100081.03
2023-03-17T12:55:18.572Z,100082.44
2023-03-17T12:57:47.756Z,100084.19
2023-03-17T13:00:25.805Z,100077.69
2023-03-17T13:03:23.351Z,100099.63
2023-03-17T13:05:52.955Z,100105.50
2023-03-17T13:08:28.358Z,100102.66
2023-03-17T13:11:15.927Z,100103.38
2023-03-17T13:13:51.537Z,100085.13
2023-03-17T13:16:27.681Z,100116.94
2023-03-17T13:19:16.623Z,100124.81
2023-03-17T13:22:00.492Z,100106.66
2023-03-17T13:24:42.142Z,100121.06
2023-03-17T13:27:14.569Z,100113.84
2023-03-17T13:29:43.939Z,100121.94
2023-03-17T13:32:16.661Z,100119.72
2023-03-17T13:34:45.756Z,100116.19
2023-03-17T13:37:28.371Z,100138.31
2023-03-17T13:40:19.120Z,100139.56
2023-03-17T13:43:07.109Z,100158.06
2023-03-17T13:45:39.633Z,100147.38
2023-03-17T13:48:25.890Z,100142.66
2023-03-17T13:51:15.041Z,100150.84
2023-03-17T13:53:47.709Z,100152.63
2023-03-17T13:56:18.580Z,100163.59
2023-03-17T13:59:00.759Z,100158.94
2023-03-17T14:01:30.123Z,100175.09
2023-03-17T14:03:56.939Z,100149.94
2023-03-17T14:06:28.142Z,100167.59
2023-03-17T14:08:59.201Z,100186.09
2023-03-17T14:11:45.286Z,100164.88
2023-03-17T14:14:31.567Z,100184.72
2023-03-17T14:17:09.710Z,100182.53
2023-03-17T14:19:36.230Z,100175.97
2023-03-17T14:22:17.977Z,100180.88
2023-03-17T14:24:44.453Z,100199.09
2023-03-17T14:27:12.556Z,100198.28
2023-03-17T14:29:39.190Z,100202.50
2023-03-17T14:32:17.730Z,100200.06
2023-03-17T14:34:46.679Z,100206.09
2023-03-17T14:37:15.469Z,100206.69
2023-03-17T14:39:48.748Z,100214.84
2023-03-17T14:42:18.702Z,100223.94
2023-03-17T14:44:45.206Z,100209.16
2023-03-17T14:47:22.891Z,100226.41
2023-03-17T14:49:52.445Z,100212.56
2023-03-17T14:52:26.757Z,100216.00
2023-03-17T14:54:57.405Z,100222.03
2023-03-17T14:57:27.241Z,100234.91
2023-03-17T14:59:59.576Z,100232.16
2023-03-17T15:02:36.991Z,100229.97
2023-03-17T15:05:26.703Z,100224.13
2023-03-17T15:07:53.469Z,100239.31
2023-03-17T15:10:22.965Z,100236.81
2023-03-17T15:12:50.153Z,100233.81
2023-03-17T15:15:31.262Z,100255.03
2023-03-17T15:18:00.364Z,100258.13
2023-03-17T15:20:28.309Z,100273.03
2023-03-17T15:23:02.956Z,100307.59
2023-03-17T15:25:43.203Z,100263.00
2023-03-17T15:28:15.731Z,100271.75
2023-03-17T15:30:47.632Z,100276.06
2023-03-17T15:33:29.719Z,100283.47
2023-03-17T15:35:56.706Z,100282.91
2023-03-17T15:38:23.535Z,100293.13
2023-03-17T15:40:50.039Z,100293.25
2023-03-17T15:43:18.701Z,100297.69
2023-03-17T15:45:45.647Z,100294.84
2023-03-17T15:48:20.998Z,100305.47
2023-03-17T15:50:48.371Z,100307.16
2023-03-17T15:53:14.865Z,100301.75
2023-03-17T15:55:41.917Z,100312.66
2023-03-17T15:58:08.428Z,100317.88
2023-03-17T16:00:35.565Z,100303.97
2023-03-17T16:03:11.320Z,100321.28
2023-03-17T16:05:37.847Z,100324.81
2023-03-17T16:08:04.510Z,100331.22
2023-03-17T16:10:32.901Z,100341.34
2023-03-17T16:13:00.321Z,100339.03
2023-03-17T16:15:29.271Z,100346.63
2023-03-17T16:17:58.332Z,100347.81
2023-03-17T16:20:28.655Z,100357.97
2023-03-17T16:22:56.922Z,100358.66
2023-03-17T16:25:26.544Z,100360.09
2023-03-17T16:27:56.422Z,100364.97
2023-03-17T16:30:24.696Z,100364.38
2023-03-17T16:32:51.611Z,100363.84
2023-03-17T16:35:23.816Z,100374.22
2023-03-17T16:37:51.130Z,100382.47
2023-03-17T16:40:25.629Z,100388.00
2023-03-17T16:42:52.438Z,100388.81
2023-03-17T16:45:21.132Z,100385.78
2023-03-17T16:47:49.426Z,100391.66
2023-03-17T16:50:18.128Z,100397.56
2023-03-17T16:52:44.930Z,100397.66
2023-03-17T16:55:12.151Z,100404.13
2023-03-17T16:57:39.727Z,100418.38
2023-03-17T17:00:07.543Z,100408.97
2023-03-17T17:02:34.541Z,100414.25
2023-03-17T17:05:01.041Z,100415.91
2023-03-17T17:07:28.239Z,100423.31
2023-03-17T17:09:55.074Z,100423.44
2023-03-17T17:12:21.768Z,100429.13
2023-03-17T17:14:48.312Z,100431.47
2023-03-17T17:17:14.844Z,100438.88
2023-03-17T17:19:41.330Z,100440.72
2023-03-17T17:22:07.871Z,100447.22
2023-03-17T17:24:34.466Z,100453.66
2023-03-17T17:27:00.947Z,100446.09
2023-03-17T17:29:27.421Z,100458.34
2023-03-17T17:31:54.064Z,100455.84
2023-03-17T17:34:20.590Z,100463.03
2023-03-17T17:36:47.216Z,100465.59
2023-03-17T17:39:13.955Z,100465.66
2023-03-17T17:41:40.426Z,100475.03
2023-03-17T17:44:06.963Z,100470.19
2023-03-17T17:46:33.845Z,100483.59
2023-03-17T17:49:00.539Z,100484.16
2023-03-17T17:51:26.983Z,100490.88
2023-03-17T17:53:53.510Z,100485.81
2023-03-17T17:56:20.080Z,100491.44
2023-03-17T17:58:46.899Z,100491.00
2023-03-17T18:01:14.208Z,100504.16
2023-03-17T18:03:40.878Z,100506.84
2023-03-17T18:06:07.468Z,100505.78
2023-03-17T18:08:34.062Z,100503.66
2023-03-17T18:13:27.295Z,100525.81
2023-03-17T18:15:53.979Z,100519.88
2023-03-17T18:18:20.477Z,100527.41
2023-03-17T18:20:46.973Z,100522.38
2023-03-17T18:23:13.725Z,100531.53
2023-03-17T18:25:40.237Z,100534.22
2023-03-17T18:28:06.847Z,100527.44
2023-03-17T18:30:34.636Z,100528.78
2023-03-17T18:33:15.161Z,100536.78
2023-03-17T18:35:43.841Z,100536.19
2023-03-17T18:38:10.439Z,100528.34
2023-03-17T18:40:37.858Z,100539.72
2023-03-17T18:43:04.802Z,100541.72
2023-03-17T18:45:31.311Z,100535.81
2023-03-17T18:47:57.768Z,100549.03
2023-03-17T18:50:25.246Z,100536.22
2023-03-17T18:52:51.773Z,100543.31
2023-03-17T18:55:18.521Z,100556.53
2023-03-17T18:57:45.616Z,100553.66
2023-03-17T19:00:14.213Z,100559.44
2023-03-17T19:02:40.714Z,100554.06
2023-03-17T19:05:07.911Z,100559.25
2023-03-17T19:07:34.820Z,100557.50
2023-03-17T19:10:01.344Z,100556.16
2023-03-17T19:12:27.935Z,100567.94
2023-03-17T19:14:54.682Z,100573.09
2023-03-17T19:17:21.243Z,100569.78
2023-03-17T19:19:48.262Z,100571.03
2023-03-17T19:22:14.744Z,100570.63
2023-03-17T19:24:41.239Z,100582.63
2023-03-17T19:27:08.082Z,100582.63
2023-03-17T19:29:34.575Z,100580.53
2023-03-17T19:32:01.067Z,100579.09
2023-03-17T19:34:27.796Z,100576.19
2023-03-17T19:36:54.289Z,100580.94
2023-03-17T19:39:21.773Z,100574.59
2023-03-17T19:41:48.388Z,100575.72
2023-03-17T19:44:14.916Z,100578.84
2023-03-17T19:46:41.405Z,100575.53
2023-03-17T19:49:07.951Z,100580.19
2023-03-17T19:51:34.446Z,100575.97
2023-03-17T19:54:01.612Z,100582.34
2023-03-17T19:56:28.385Z,100581.72
2023-03-17T19:58:55.189Z,100580.16
2023-03-17T20:01:21.742Z,100582.22
2023-03-17T20:03:48.602Z,100588.19
2023-03-17T20:06:15.423Z,100579.84
2023-03-17T20:08:43.061Z,100589.22
2023-03-17T20:11:11.379Z,100580.03
2023-03-17T20:13:39.578Z,100589.97
2023-03-17T20:16:06.994Z,100586.84
2023-03-17T20:18:33.652Z,100583.97
2023-03-17T20:21:00.327Z,100591.06
2023-03-17T20:23:26.990Z,100584.53
2023-03-17T20:25:54.425Z,100593.41
2023-03-17T20:28:21.556Z,100590.09
2023-03-17T20:30:48.661Z,100596.25
2023-03-17T20:33:15.182Z,100592.28
2023-03-17T20:35:44.077Z,100594.22
2023-03-17T20:38:11.541Z,100591.94
2023-03-17T20:40:39.391Z,100598.56
2023-03-17T20:43:06.166Z,100593.97
2023-03-17T20:45:32.752Z,100594.03
2023-03-17T20:47:59.319Z,100588.47
2023-03-17T20:50:25.768Z,100597.25
2023-03-17T20:52:52.260Z,100644.59
2023-03-17T20:55:18.784Z,100594.66
2023-03-17T20:57:45.506Z,100607.03
2023-03-17T21:00:13.869Z,100599.97
2023-03-17T21:02:40.597Z,100612.75
2023-03-17T21:05:08.013Z,100610.00
2023-03-17T21:07:34.517Z,100617.75
2023-03-17T21:10:01.132Z,100613.50
2023-03-17T21:12:27.924Z,100609.19
2023-03-17T21:14:54.452Z,100611.66
2023-03-17T21:17:20.981Z,100614.78
2023-03-17T21:19:47.469Z,100625.94
2023-03-17T21:22:13.959Z,100624.84
2023-03-17T21:24:41.272Z,100624.31
2023-03-17T21:29:34.984Z,100637.91
2023-03-17T21:32:02.301Z,100635.06
2023-03-17T21:34:31.027Z,100638.66
2023-03-17T21:36:59.326Z,100640.03
2023-03-17T21:39:29.475Z,100643.53
2023-03-17T21:41:57.236Z,100644.63
2023-03-17T21:44:24.242Z,100654.94
2023-03-17T21:46:50.965Z,100662.88
2023-03-17T21:49:17.639Z,100662.25
2023-03-17T21:51:46.022Z,100665.53
2023-03-17T21:54:13.519Z,100670.97
2023-03-17T21:56:40.006Z,100676.66
2023-03-17T21:59:06.949Z,100680.91
2023-03-17T22:01:33.550Z,100688.22
2023-03-17T22:04:00.075Z,100696.75
2023-03-17T22:06:26.731Z,100698.69
2023-03-17T22:08:53.237Z,100697.50
2023-03-17T22:11:19.782Z,100700.78
2023-03-17T22:13:47.430Z,100703.59
2023-03-17T22:16:15.397Z,100713.06
2023-03-17T22:18:42.278Z,100712.31
2023-03-17T22:21:08.993Z,100726.94
2023-03-17T22:23:36.694Z,100728.41
2023-03-17T22:26:03.263Z,100726.84
2023-03-17T22:28:29.731Z,100732.09
2023-03-17T22:30:56.378Z,100728.78
2023-03-17T22:33:22.846Z,100733.38
2023-03-17T22:35:49.455Z,100741.47
2023-03-17T22:38:16.083Z,100736.97
2023-03-17T22:40:42.525Z,100746.78
2023-03-17T22:43:09.032Z,100750.94
2023-03-17T22:45:35.575Z,100744.97
2023-03-17T22:48:02.083Z,100742.56
2023-03-17T22:50:28.553Z,100743.22
2023-03-17T22:52:55.080Z,100751.94
2023-03-17T22:55:21.753Z,100758.69
2023-03-17T22:57:48.416Z,100760.97
2023-03-17T23:00:16.927Z,100756.28
2023-03-17T23:02:44.586Z,100762.16
2023-03-17T23:05:11.501Z,100763.38
2023-03-17T23:07:49.546Z,100760.59
2023-03-17T23:10:18.302Z,100762.16
2023-03-17T23:12:45.128Z,100764.25
2023-03-17T23:15:11.719Z,100761.50
2023-03-17T23:17:38.221Z,100765.56
2023-03-17T23:20:05.391Z,100774.75
2023-03-17T23:22:32.501Z,100771.78
2023-03-17T23:24:58.986Z,100771.78
2023-03-17T23:27:25.510Z,100776.94
2023-03-17T23:29:51.971Z,100769.78
2023-03-17T23:32:18.841Z,100770.03
2023-03-17T23:34:45.438Z,100783.34
2023-03-17T23:37:11.907Z,100775.63
2023-03-17T23:39:38.510Z,100772.94
2023-03-17T23:42:05.153Z,100774.69
2023-03-17T23:44:31.671Z,100785.09
2023-03-17T23:46:58.280Z,100782.78
2023-03-17T23:49:24.918Z,100787.56
2023-03-17T23:51:51.409Z,100790.88
2023-03-17T23:54:17.926Z,100786.19
2023-03-17T23:56:44.487Z,100794.91
2023-03-17T23:59:10.968Z,100792.41
